sensor_id;sensor_type;location;lat;lon;timestamp;P1;durP1;ratioP1;P2;durP2;ratioP2
20758;SDS011;10539;53.686;9.158;2022-11-09T00:01:35;6.80;;;1.97;;
20758;SDS011;10539;53.686;9.158;2022-11-09T00:04:02;3.80;;;1.57;;
20758;SDS011;10539;53.686;9.158;2022-11-09T00:06:30;4.23;;;1.50;;
20758;SDS011;10539;53.686;9.158;2022-11-09T00:08:56;3.40;;;1.70;;
20758;SDS011;10539;53.686;9.158;2022-11-09T00:11:22;3.27;;;1.70;;
20758;SDS011;10539;53.686;9.158;2022-11-09T00:13:48;4.70;;;2.47;;
20758;SDS011;10539;53.686;9.158;2022-11-09T00:16:15;2.20;;;1.33;;
20758;SDS011;10539;53.686;9.158;2022-11-09T00:18:42;3.93;;;1.90;;
20758;SDS011;10539;53.686;9.158;2022-11-09T00:21:12;5.83;;;2.07;;
20758;SDS011;10539;53.686;9.158;2022-11-09T00:23:43;4.63;;;1.60;;
20758;SDS011;10539;53.686;9.158;2022-11-09T00:26:09;7.57;;;2.30;;
20758;SDS011;10539;53.686;9.158;2022-11-09T00:28:37;3.87;;;1.70;;
20758;SDS011;10539;53.686;9.158;2022-11-09T00:31:03;4.10;;;1.80;;
20758;SDS011;10539;53.686;9.158;2022-11-09T00:33:34;3.03;;;2.07;;
20758;SDS011;10539;53.686;9.158;2022-11-09T00:36:07;3.63;;;1.93;;
20758;SDS011;10539;53.686;9.158;2022-11-09T00:38:37;4.43;;;2.00;;
20758;SDS011;10539;53.686;9.158;2022-11-09T00:41:07;4.20;;;1.80;;
20758;SDS011;10539;53.686;9.158;2022-11-09T00:43:35;2.00;;;1.50;;
20758;SDS011;10539;53.686;9.158;2022-11-09T00:46:01;2.30;;;1.50;;
20758;SDS011;10539;53.686;9.158;2022-11-09T00:48:27;3.17;;;1.80;;
20758;SDS011;10539;53.686;9.158;2022-11-09T00:50:54;3.07;;;1.70;;
20758;SDS011;10539;53.686;9.158;2022-11-09T00:53:21;6.50;;;1.87;;
20758;SDS011;10539;53.686;9.158;2022-11-09T00:56:00;6.97;;;2.17;;
20758;SDS011;10539;53.686;9.158;2022-11-09T00:58:31;6.00;;;2.30;;
20758;SDS011;10539;53.686;9.158;2022-11-09T01:00:59;5.07;;;2.00;;
20758;SDS011;10539;53.686;9.158;2022-11-09T01:03:30;3.87;;;1.73;;
20758;SDS011;10539;53.686;9.158;2022-11-09T01:05:57;3.93;;;1.77;;
20758;SDS011;10539;53.686;9.158;2022-11-09T01:08:24;3.80;;;2.03;;
20758;SDS011;10539;53.686;9.158;2022-11-09T01:10:50;4.37;;;1.93;;
20758;SDS011;10539;53.686;9.158;2022-11-09T01:13:16;5.87;;;2.00;;
20758;SDS011;10539;53.686;9.158;2022-11-09T01:15:47;5.47;;;1.90;;
20758;SDS011;10539;53.686;9.158;2022-11-09T01:18:15;5.20;;;1.80;;
20758;SDS011;10539;53.686;9.158;2022-11-09T01:20:43;3.40;;;1.90;;
20758;SDS011;10539;53.686;9.158;2022-11-09T01:23:11;8.83;;;1.90;;
20758;SDS011;10539;53.686;9.158;2022-11-09T01:25:38;5.03;;;1.80;;
20758;SDS011;10539;53.686;9.158;2022-11-09T01:28:05;4.27;;;1.67;;
20758;SDS011;10539;53.686;9.158;2022-11-09T01:30:34;3.23;;;1.70;;
20758;SDS011;10539;53.686;9.158;2022-11-09T01:33:02;4.87;;;1.67;;
20758;SDS011;10539;53.686;9.158;2022-11-09T01:35:31;4.30;;;1.90;;
20758;SDS011;10539;53.686;9.158;2022-11-09T01:37:58;4.93;;;1.60;;
20758;SDS011;10539;53.686;9.158;2022-11-09T01:40:25;3.40;;;1.83;;
20758;SDS011;10539;53.686;9.158;2022-11-09T01:42:51;2.43;;;1.50;;
20758;SDS011;10539;53.686;9.158;2022-11-09T01:47:44;3.93;;;1.43;;
20758;SDS011;10539;53.686;9.158;2022-11-09T01:50:15;4.07;;;1.90;;
20758;SDS011;10539;53.686;9.158;2022-11-09T01:52:52;3.73;;;1.90;;
20758;SDS011;10539;53.686;9.158;2022-11-09T01:55:19;4.30;;;1.90;;
20758;SDS011;10539;53.686;9.158;2022-11-09T02:00:19;3.63;;;1.80;;
20758;SDS011;10539;53.686;9.158;2022-11-09T02:02:47;4.47;;;1.63;;
20758;SDS011;10539;53.686;9.158;2022-11-09T02:05:17;6.33;;;1.90;;
20758;SDS011;10539;53.686;9.158;2022-11-09T02:07:49;2.80;;;1.90;;
20758;SDS011;10539;53.686;9.158;2022-11-09T02:10:59;2.90;;;1.80;;
20758;SDS011;10539;53.686;9.158;2022-11-09T02:13:09;5.33;;;1.93;;
20758;SDS011;10539;53.686;9.158;2022-11-09T02:15:37;3.53;;;1.67;;
20758;SDS011;10539;53.686;9.158;2022-11-09T02:18:03;3.73;;;1.90;;
20758;SDS011;10539;53.686;9.158;2022-11-09T02:20:30;5.77;;;1.70;;
20758;SDS011;10539;53.686;9.158;2022-11-09T02:23:09;5.33;;;1.83;;
20758;SDS011;10539;53.686;9.158;2022-11-09T02:25:35;4.07;;;1.77;;
20758;SDS011;10539;53.686;9.158;2022-11-09T02:28:01;4.13;;;1.70;;
20758;SDS011;10539;53.686;9.158;2022-11-09T02:30:27;2.93;;;1.57;;
20758;SDS011;10539;53.686;9.158;2022-11-09T02:32:52;8.07;;;1.87;;
20758;SDS011;10539;53.686;9.158;2022-11-09T02:35:18;4.40;;;1.83;;
20758;SDS011;10539;53.686;9.158;2022-11-09T02:37:47;3.17;;;1.70;;
20758;SDS011;10539;53.686;9.158;2022-11-09T02:40:31;3.23;;;1.70;;
20758;SDS011;10539;53.686;9.158;2022-11-09T02:43:02;3.33;;;1.70;;
20758;SDS011;10539;53.686;9.158;2022-11-09T02:45:29;3.13;;;1.47;;
20758;SDS011;10539;53.686;9.158;2022-11-09T02:47:55;5.13;;;2.00;;
20758;SDS011;10539;53.686;9.158;2022-11-09T02:50:21;3.80;;;1.87;;
20758;SDS011;10539;53.686;9.158;2022-11-09T02:52:47;7.27;;;1.90;;
20758;SDS011;10539;53.686;9.158;2022-11-09T02:55:13;6.93;;;2.13;;
20758;SDS011;10539;53.686;9.158;2022-11-09T02:57:39;4.00;;;2.00;;
20758;SDS011;10539;53.686;9.158;2022-11-09T03:00:05;3.67;;;1.93;;
20758;SDS011;10539;53.686;9.158;2022-11-09T03:02:31;3.10;;;1.50;;
20758;SDS011;10539;53.686;9.158;2022-11-09T03:04:57;3.00;;;1.80;;
20758;SDS011;10539;53.686;9.158;2022-11-09T03:07:23;2.60;;;1.60;;
20758;SDS011;10539;53.686;9.158;2022-11-09T03:09:49;7.07;;;2.17;;
20758;SDS011;10539;53.686;9.158;2022-11-09T03:12:15;4.17;;;2.10;;
20758;SDS011;10539;53.686;9.158;2022-11-09T03:14:53;6.43;;;2.07;;
20758;SDS011;10539;53.686;9.158;2022-11-09T03:17:19;3.63;;;2.13;;
20758;SDS011;10539;53.686;9.158;2022-11-09T03:19:45;5.00;;;2.20;;
20758;SDS011;10539;53.686;9.158;2022-11-09T03:22:11;3.40;;;2.10;;
20758;SDS011;10539;53.686;9.158;2022-11-09T03:24:36;4.37;;;1.93;;
20758;SDS011;10539;53.686;9.158;2022-11-09T03:27:02;4.00;;;1.97;;
20758;SDS011;10539;53.686;9.158;2022-11-09T03:29:28;3.70;;;2.67;;
20758;SDS011;10539;53.686;9.158;2022-11-09T03:31:54;4.23;;;2.00;;
20758;SDS011;10539;53.686;9.158;2022-11-09T03:34:20;5.37;;;1.90;;
20758;SDS011;10539;53.686;9.158;2022-11-09T03:36:46;2.70;;;1.70;;
20758;SDS011;10539;53.686;9.158;2022-11-09T03:39:11;4.70;;;2.10;;
20758;SDS011;10539;53.686;9.158;2022-11-09T03:41:37;3.20;;;1.80;;
20758;SDS011;10539;53.686;9.158;2022-11-09T03:44:03;4.07;;;1.77;;
20758;SDS011;10539;53.686;9.158;2022-11-09T03:46:29;3.27;;;1.87;;
20758;SDS011;10539;53.686;9.158;2022-11-09T03:48:54;3.20;;;1.93;;
20758;SDS011;10539;53.686;9.158;2022-11-09T03:51:20;4.67;;;1.90;;
20758;SDS011;10539;53.686;9.158;2022-11-09T03:53:46;4.90;;;2.00;;
20758;SDS011;10539;53.686;9.158;2022-11-09T03:56:12;3.57;;;1.67;;
20758;SDS011;10539;53.686;9.158;2022-11-09T03:58:38;3.87;;;2.00;;
20758;SDS011;10539;53.686;9.158;2022-11-09T04:01:03;7.33;;;2.30;;
20758;SDS011;10539;53.686;9.158;2022-11-09T04:03:29;3.57;;;2.00;;
20758;SDS011;10539;53.686;9.158;2022-11-09T04:05:57;4.40;;;2.07;;
20758;SDS011;10539;53.686;9.158;2022-11-09T04:08:23;5.20;;;2.10;;
20758;SDS011;10539;53.686;9.158;2022-11-09T04:10:48;5.30;;;1.83;;
20758;SDS011;10539;53.686;9.158;2022-11-09T04:13:14;6.83;;;1.80;;
20758;SDS011;10539;53.686;9.158;2022-11-09T04:15:41;4.63;;;2.03;;
20758;SDS011;10539;53.686;9.158;2022-11-09T04:18:07;8.00;;;2.30;;
20758;SDS011;10539;53.686;9.158;2022-11-09T04:20:37;6.83;;;2.20;;
20758;SDS011;10539;53.686;9.158;2022-11-09T04:23:03;5.63;;;2.20;;
20758;SDS011;10539;53.686;9.158;2022-11-09T04:25:30;2.53;;;1.87;;
20758;SDS011;10539;53.686;9.158;2022-11-09T04:27:58;3.43;;;1.53;;
20758;SDS011;10539;53.686;9.158;2022-11-09T04:30:25;4.77;;;1.90;;
20758;SDS011;10539;53.686;9.158;2022-11-09T04:32:55;7.37;;;2.07;;
20758;SDS011;10539;53.686;9.158;2022-11-09T04:35:22;7.37;;;2.07;;
20758;SDS011;10539;53.686;9.158;2022-11-09T04:37:52;3.10;;;1.80;;
20758;SDS011;10539;53.686;9.158;2022-11-09T04:40:23;2.70;;;1.80;;
20758;SDS011;10539;53.686;9.158;2022-11-09T04:42:50;3.53;;;1.97;;
20758;SDS011;10539;53.686;9.158;2022-11-09T04:45:16;6.07;;;2.07;;
20758;SDS011;10539;53.686;9.158;2022-11-09T04:47:42;5.37;;;2.10;;
20758;SDS011;10539;53.686;9.158;2022-11-09T04:50:08;9.27;;;1.93;;
20758;SDS011;10539;53.686;9.158;2022-11-09T04:52:34;4.20;;;1.70;;
20758;SDS011;10539;53.686;9.158;2022-11-09T04:55:00;6.10;;;2.17;;
20758;SDS011;10539;53.686;9.158;2022-11-09T04:57:26;4.17;;;1.90;;
20758;SDS011;10539;53.686;9.158;2022-11-09T04:59:52;4.97;;;1.87;;
20758;SDS011;10539;53.686;9.158;2022-11-09T05:02:18;3.93;;;1.80;;
20758;SDS011;10539;53.686;9.158;2022-11-09T05:04:44;5.73;;;2.20;;
20758;SDS011;10539;53.686;9.158;2022-11-09T05:07:10;3.47;;;1.90;;
20758;SDS011;10539;53.686;9.158;2022-11-09T05:09:35;4.60;;;2.10;;
20758;SDS011;10539;53.686;9.158;2022-11-09T05:12:01;3.73;;;2.10;;
20758;SDS011;10539;53.686;9.158;2022-11-09T05:14:28;2.90;;;1.90;;
20758;SDS011;10539;53.686;9.158;2022-11-09T05:16:54;4.73;;;1.80;;
20758;SDS011;10539;53.686;9.158;2022-11-09T05:19:19;3.47;;;1.70;;
20758;SDS011;10539;53.686;9.158;2022-11-09T05:21:45;6.27;;;1.77;;
20758;SDS011;10539;53.686;9.158;2022-11-09T05:24:11;3.43;;;1.90;;
20758;SDS011;10539;53.686;9.158;2022-11-09T05:26:37;6.53;;;2.10;;
20758;SDS011;10539;53.686;9.158;2022-11-09T05:29:05;4.87;;;1.80;;
20758;SDS011;10539;53.686;9.158;2022-11-09T05:31:33;3.20;;;1.93;;
20758;SDS011;10539;53.686;9.158;2022-11-09T05:33:59;3.13;;;1.67;;
20758;SDS011;10539;53.686;9.158;2022-11-09T05:36:26;3.60;;;1.80;;
20758;SDS011;10539;53.686;9.158;2022-11-09T05:38:53;5.57;;;2.07;;
20758;SDS011;10539;53.686;9.158;2022-11-09T05:41:19;6.30;;;1.73;;
20758;SDS011;10539;53.686;9.158;2022-11-09T05:43:45;4.67;;;1.77;;
20758;SDS011;10539;53.686;9.158;2022-11-09T05:46:14;7.30;;;2.37;;
20758;SDS011;10539;53.686;9.158;2022-11-09T05:48:41;5.97;;;1.90;;
20758;SDS011;10539;53.686;9.158;2022-11-09T05:51:08;5.47;;;1.90;;
20758;SDS011;10539;53.686;9.158;2022-11-09T05:53:36;4.27;;;1.80;;
20758;SDS011;10539;53.686;9.158;2022-11-09T05:56:03;3.47;;;1.97;;
20758;SDS011;10539;53.686;9.158;2022-11-09T05:58:30;6.97;;;1.87;;
20758;SDS011;10539;53.686;9.158;2022-11-09T06:01:01;4.93;;;2.03;;
20758;SDS011;10539;53.686;9.158;2022-11-09T06:03:29;3.57;;;2.20;;
20758;SDS011;10539;53.686;9.158;2022-11-09T06:05:58;5.17;;;2.10;;
20758;SDS011;10539;53.686;9.158;2022-11-09T06:08:28;6.07;;;1.97;;
20758;SDS011;10539;53.686;9.158;2022-11-09T06:11:01;5.33;;;1.80;;
20758;SDS011;10539;53.686;9.158;2022-11-09T06:13:29;3.03;;;2.10;;
20758;SDS011;10539;53.686;9.158;2022-11-09T06:15:55;6.50;;;2.10;;
20758;SDS011;10539;53.686;9.158;2022-11-09T06:18:25;5.50;;;2.30;;
20758;SDS011;10539;53.686;9.158;2022-11-09T06:20:53;6.13;;;2.87;;
20758;SDS011;10539;53.686;9.158;2022-11-09T06:23:21;7.93;;;2.03;;
20758;SDS011;10539;53.686;9.158;2022-11-09T06:25:51;4.97;;;1.97;;
20758;SDS011;10539;53.686;9.158;2022-11-09T06:28:18;5.03;;;2.10;;
20758;SDS011;10539;53.686;9.158;2022-11-09T06:30:44;4.60;;;2.20;;
20758;SDS011;10539;53.686;9.158;2022-11-09T06:33:10;5.87;;;2.00;;
20758;SDS011;10539;53.686;9.158;2022-11-09T06:35:36;5.57;;;2.17;;
20758;SDS011;10539;53.686;9.158;2022-11-09T06:38:01;5.23;;;2.23;;
20758;SDS011;10539;53.686;9.158;2022-11-09T06:40:27;5.03;;;2.17;;
20758;SDS011;10539;53.686;9.158;2022-11-09T06:42:57;5.00;;;1.97;;
20758;SDS011;10539;53.686;9.158;2022-11-09T06:45:24;6.00;;;2.00;;
20758;SDS011;10539;53.686;9.158;2022-11-09T06:47:53;5.07;;;2.10;;
20758;SDS011;10539;53.686;9.158;2022-11-09T06:50:20;5.87;;;2.20;;
20758;SDS011;10539;53.686;9.158;2022-11-09T06:52:46;5.20;;;2.20;;
20758;SDS011;10539;53.686;9.158;2022-11-09T06:55:12;5.20;;;2.10;;
20758;SDS011;10539;53.686;9.158;2022-11-09T06:57:38;5.33;;;2.30;;
20758;SDS011;10539;53.686;9.158;2022-11-09T07:00:04;8.73;;;2.60;;
20758;SDS011;10539;53.686;9.158;2022-11-09T07:02:30;6.80;;;2.50;;
20758;SDS011;10539;53.686;9.158;2022-11-09T07:04:56;8.13;;;2.27;;
20758;SDS011;10539;53.686;9.158;2022-11-09T07:07:21;3.97;;;2.20;;
20758;SDS011;10539;53.686;9.158;2022-11-09T07:09:48;6.00;;;2.10;;
20758;SDS011;10539;53.686;9.158;2022-11-09T07:12:13;4.77;;;2.90;;
20758;SDS011;10539;53.686;9.158;2022-11-09T07:14:39;5.30;;;2.20;;
20758;SDS011;10539;53.686;9.158;2022-11-09T07:17:05;7.83;;;2.47;;
20758;SDS011;10539;53.686;9.158;2022-11-09T07:19:31;5.97;;;2.33;;
20758;SDS011;10539;53.686;9.158;2022-11-09T07:21:56;3.37;;;2.20;;
20758;SDS011;10539;53.686;9.158;2022-11-09T07:24:22;4.67;;;2.40;;
20758;SDS011;10539;53.686;9.158;2022-11-09T07:26:48;5.00;;;2.50;;
20758;SDS011;10539;53.686;9.158;2022-11-09T07:29:14;4.90;;;2.10;;
20758;SDS011;10539;53.686;9.158;2022-11-09T07:31:40;3.73;;;1.80;;
20758;SDS011;10539;53.686;9.158;2022-11-09T07:34:06;5.87;;;2.10;;
20758;SDS011;10539;53.686;9.158;2022-11-09T07:36:32;5.77;;;2.30;;
20758;SDS011;10539;53.686;9.158;2022-11-09T07:39:00;7.83;;;2.53;;
20758;SDS011;10539;53.686;9.158;2022-11-09T07:41:26;4.53;;;2.33;;
20758;SDS011;10539;53.686;9.158;2022-11-09T07:43:52;6.97;;;2.20;;
20758;SDS011;10539;53.686;9.158;2022-11-09T07:46:18;5.80;;;2.00;;
20758;SDS011;10539;53.686;9.158;2022-11-09T07:48:44;5.37;;;2.00;;
20758;SDS011;10539;53.686;9.158;2022-11-09T07:51:09;6.30;;;2.10;;
20758;SDS011;10539;53.686;9.158;2022-11-09T07:53:35;4.13;;;1.93;;
20758;SDS011;10539;53.686;9.158;2022-11-09T07:56:02;7.00;;;2.53;;
20758;SDS011;10539;53.686;9.158;2022-11-09T07:58:28;6.53;;;2.20;;
20758;SDS011;10539;53.686;9.158;2022-11-09T08:00:54;8.53;;;2.27;;
20758;SDS011;10539;53.686;9.158;2022-11-09T08:03:20;6.40;;;1.80;;
20758;SDS011;10539;53.686;9.158;2022-11-09T08:05:47;5.07;;;1.93;;
20758;SDS011;10539;53.686;9.158;2022-11-09T08:08:13;6.33;;;2.40;;
20758;SDS011;10539;53.686;9.158;2022-11-09T08:10:40;4.57;;;2.33;;
20758;SDS011;10539;53.686;9.158;2022-11-09T08:13:12;3.20;;;1.93;;
20758;SDS011;10539;53.686;9.158;2022-11-09T08:15:38;8.70;;;2.37;;
20758;SDS011;10539;53.686;9.158;2022-11-09T08:18:16;7.43;;;2.10;;
20758;SDS011;10539;53.686;9.158;2022-11-09T08:20:44;6.17;;;1.97;;
20758;SDS011;10539;53.686;9.158;2022-11-09T08:23:11;2.33;;;1.67;;
20758;SDS011;10539;53.686;9.158;2022-11-09T08:25:37;5.73;;;2.30;;
20758;SDS011;10539;53.686;9.158;2022-11-09T08:28:03;3.23;;;1.80;;
20758;SDS011;10539;53.686;9.158;2022-11-09T08:30:29;5.10;;;2.00;;
20758;SDS011;10539;53.686;9.158;2022-11-09T08:32:56;5.63;;;2.00;;
20758;SDS011;10539;53.686;9.158;2022-11-09T08:35:23;5.80;;;2.97;;
20758;SDS011;10539;53.686;9.158;2022-11-09T08:37:50;4.10;;;1.97;;
20758;SDS011;10539;53.686;9.158;2022-11-09T08:40:18;5.77;;;1.80;;
20758;SDS011;10539;53.686;9.158;2022-11-09T08:42:46;5.57;;;2.03;;
20758;SDS011;10539;53.686;9.158;2022-11-09T08:45:12;8.13;;;1.93;;
20758;SDS011;10539;53.686;9.158;2022-11-09T08:47:38;5.17;;;1.70;;
20758;SDS011;10539;53.686;9.158;2022-11-09T08:50:04;3.87;;;1.83;;
20758;SDS011;10539;53.686;9.158;2022-11-09T08:52:31;4.07;;;1.90;;
20758;SDS011;10539;53.686;9.158;2022-11-09T08:54:57;3.13;;;1.70;;
20758;SDS011;10539;53.686;9.158;2022-11-09T08:57:23;11.73;;;1.80;;
20758;SDS011;10539;53.686;9.158;2022-11-09T08:59:49;7.73;;;1.97;;
20758;SDS011;10539;53.686;9.158;2022-11-09T09:02:15;10.73;;;2.30;;
20758;SDS011;10539;53.686;9.158;2022-11-09T09:04:40;7.20;;;1.67;;
20758;SDS011;10539;53.686;9.158;2022-11-09T09:07:07;6.03;;;1.40;;
20758;SDS011;10539;53.686;9.158;2022-11-09T09:09:33;7.90;;;2.10;;
20758;SDS011;10539;53.686;9.158;2022-11-09T09:11:59;5.63;;;1.60;;
20758;SDS011;10539;53.686;9.158;2022-11-09T09:14:25;6.27;;;1.47;;
20758;SDS011;10539;53.686;9.158;2022-11-09T09:16:51;8.00;;;1.80;;
20758;SDS011;10539;53.686;9.158;2022-11-09T09:19:17;7.50;;;1.53;;
20758;SDS011;10539;53.686;9.158;2022-11-09T09:21:43;7.97;;;1.70;;
20758;SDS011;10539;53.686;9.158;2022-11-09T09:24:09;8.53;;;1.60;;
20758;SDS011;10539;53.686;9.158;2022-11-09T09:26:35;9.50;;;1.60;;
20758;SDS011;10539;53.686;9.158;2022-11-09T09:29:00;8.53;;;1.60;;
20758;SDS011;10539;53.686;9.158;2022-11-09T09:31:26;8.60;;;1.70;;
20758;SDS011;10539;53.686;9.158;2022-11-09T09:33:52;8.33;;;1.73;;
20758;SDS011;10539;53.686;9.158;2022-11-09T09:36:19;5.90;;;1.50;;
20758;SDS011;10539;53.686;9.158;2022-11-09T09:38:51;11.17;;;1.87;;
20758;SDS011;10539;53.686;9.158;2022-11-09T09:41:22;7.53;;;1.70;;
20758;SDS011;10539;53.686;9.158;2022-11-09T09:43:53;11.80;;;2.00;;
20758;SDS011;10539;53.686;9.158;2022-11-09T09:46:25;6.43;;;1.43;;
20758;SDS011;10539;53.686;9.158;2022-11-09T09:49:45;5.70;;;1.50;;
20758;SDS011;10539;53.686;9.158;2022-11-09T09:54:40;8.60;;;1.47;;
20758;SDS011;10539;53.686;9.158;2022-11-09T09:57:17;18.97;;;2.17;;
20758;SDS011;10539;53.686;9.158;2022-11-09T09:59:51;11.13;;;1.67;;
20758;SDS011;10539;53.686;9.158;2022-11-09T10:04:46;8.47;;;1.27;;
20758;SDS011;10539;53.686;9.158;2022-11-09T10:10:01;8.00;;;1.67;;
20758;SDS011;10539;53.686;9.158;2022-11-09T10:15:30;7.83;;;1.40;;
20758;SDS011;10539;53.686;9.158;2022-11-09T10:20:32;5.20;;;1.53;;
20758;SDS011;10539;53.686;9.158;2022-11-09T10:25:53;5.80;;;1.60;;
20758;SDS011;10539;53.686;9.158;2022-11-09T10:28:35;6.33;;;1.60;;
20758;SDS011;10539;53.686;9.158;2022-11-09T10:31:07;5.97;;;1.43;;
20758;SDS011;10539;53.686;9.158;2022-11-09T10:33:48;5.63;;;1.43;;
20758;SDS011;10539;53.686;9.158;2022-11-09T10:39:17;8.07;;;1.50;;
20758;SDS011;10539;53.686;9.158;2022-11-09T10:41:45;5.80;;;1.33;;
20758;SDS011;10539;53.686;9.158;2022-11-09T10:44:15;7.23;;;1.60;;
20758;SDS011;10539;53.686;9.158;2022-11-09T10:47:03;6.83;;;1.37;;
20758;SDS011;10539;53.686;9.158;2022-11-09T10:49:34;5.70;;;1.40;;
20758;SDS011;10539;53.686;9.158;2022-11-09T10:52:01;5.67;;;1.20;;
20758;SDS011;10539;53.686;9.158;2022-11-09T11:04:51;5.43;;;1.20;;
20758;SDS011;10539;53.686;9.158;2022-11-09T11:07:39;6.13;;;1.47;;
20758;SDS011;10539;53.686;9.158;2022-11-09T11:12:43;6.57;;;1.43;;
20758;SDS011;10539;53.686;9.158;2022-11-09T11:15:39;8.83;;;1.50;;
20758;SDS011;10539;53.686;9.158;2022-11-09T11:18:14;7.10;;;1.27;;
20758;SDS011;10539;53.686;9.158;2022-11-09T11:20:43;9.30;;;1.93;;
20758;SDS011;10539;53.686;9.158;2022-11-09T11:28:22;7.47;;;1.23;;
20758;SDS011;10539;53.686;9.158;2022-11-09T11:31:00;4.13;;;1.07;;
20758;SDS011;10539;53.686;9.158;2022-11-09T11:33:26;8.20;;;1.43;;
20758;SDS011;10539;53.686;9.158;2022-11-09T11:38:40;11.50;;;2.17;;
20758;SDS011;10539;53.686;9.158;2022-11-09T11:44:00;6.30;;;1.30;;
20758;SDS011;10539;53.686;9.158;2022-11-09T11:46:44;4.43;;;1.10;;
20758;SDS011;10539;53.686;9.158;2022-11-09T11:52:46;6.97;;;1.30;;
20758;SDS011;10539;53.686;9.158;2022-11-09T11:55:40;5.80;;;1.40;;
20758;SDS011;10539;53.686;9.158;2022-11-09T12:01:07;4.50;;;1.33;;
20758;SDS011;10539;53.686;9.158;2022-11-09T12:09:31;7.00;;;1.93;;
20758;SDS011;10539;53.686;9.158;2022-11-09T12:12:22;7.23;;;1.43;;
20758;SDS011;10539;53.686;9.158;2022-11-09T12:15:00;5.63;;;1.53;;
20758;SDS011;10539;53.686;9.158;2022-11-09T12:17:51;5.70;;;1.43;;
20758;SDS011;10539;53.686;9.158;2022-11-09T12:29:20;6.23;;;1.30;;
20758;SDS011;10539;53.686;9.158;2022-11-09T12:34:49;5.60;;;1.43;;
20758;SDS011;10539;53.686;9.158;2022-11-09T12:37:26;11.37;;;2.10;;
20758;SDS011;10539;53.686;9.158;2022-11-09T12:40:06;7.30;;;1.60;;
20758;SDS011;10539;53.686;9.158;2022-11-09T12:42:54;5.90;;;1.23;;
20758;SDS011;10539;53.686;9.158;2022-11-09T12:45:31;11.83;;;1.40;;
20758;SDS011;10539;53.686;9.158;2022-11-09T12:48:00;11.77;;;1.50;;
20758;SDS011;10539;53.686;9.158;2022-11-09T12:50:49;7.03;;;1.20;;
20758;SDS011;10539;53.686;9.158;2022-11-09T12:53:16;7.53;;;1.67;;
20758;SDS011;10539;53.686;9.158;2022-11-09T12:58:52;6.53;;;1.30;;
20758;SDS011;10539;53.686;9.158;2022-11-09T13:01:48;10.33;;;1.80;;
20758;SDS011;10539;53.686;9.158;2022-11-09T13:04:18;13.97;;;1.83;;
20758;SDS011;10539;53.686;9.158;2022-11-09T13:09:42;6.97;;;1.17;;
20758;SDS011;10539;53.686;9.158;2022-11-09T13:14:52;14.03;;;1.73;;
20758;SDS011;10539;53.686;9.158;2022-11-09T13:19:48;8.17;;;1.43;;
20758;SDS011;10539;53.686;9.158;2022-11-09T13:29:57;9.13;;;1.30;;
20758;SDS011;10539;53.686;9.158;2022-11-09T13:32:28;8.33;;;1.30;;
20758;SDS011;10539;53.686;9.158;2022-11-09T13:35:00;6.80;;;1.37;;
20758;SDS011;10539;53.686;9.158;2022-11-09T13:43:02;4.80;;;1.10;;
20758;SDS011;10539;53.686;9.158;2022-11-09T13:48:04;6.67;;;1.20;;
20758;SDS011;10539;53.686;9.158;2022-11-09T13:50:32;7.27;;;1.40;;
20758;SDS011;10539;53.686;9.158;2022-11-09T13:52:59;5.60;;;1.20;;
20758;SDS011;10539;53.686;9.158;2022-11-09T13:55:31;5.23;;;1.07;;
20758;SDS011;10539;53.686;9.158;2022-11-09T13:58:46;9.73;;;1.30;;
20758;SDS011;10539;53.686;9.158;2022-11-09T14:00:58;5.80;;;1.07;;
20758;SDS011;10539;53.686;9.158;2022-11-09T14:03:25;4.67;;;1.50;;
20758;SDS011;10539;53.686;9.158;2022-11-09T14:05:59;5.90;;;1.30;;
20758;SDS011;10539;53.686;9.158;2022-11-09T14:08:27;9.13;;;1.20;;
20758;SDS011;10539;53.686;9.158;2022-11-09T14:10:58;8.40;;;1.80;;
20758;SDS011;10539;53.686;9.158;2022-11-09T14:21:37;9.10;;;1.33;;
20758;SDS011;10539;53.686;9.158;2022-11-09T14:24:18;3.90;;;1.10;;
20758;SDS011;10539;53.686;9.158;2022-11-09T14:29:30;8.43;;;1.23;;
20758;SDS011;10539;53.686;9.158;2022-11-09T14:31:58;8.10;;;1.33;;
20758;SDS011;10539;53.686;9.158;2022-11-09T14:34:40;4.63;;;1.30;;
20758;SDS011;10539;53.686;9.158;2022-11-09T14:37:05;3.37;;;1.03;;
20758;SDS011;10539;53.686;9.158;2022-11-09T14:39:31;4.77;;;1.00;;
20758;SDS011;10539;53.686;9.158;2022-11-09T14:41:58;7.67;;;1.30;;
20758;SDS011;10539;53.686;9.158;2022-11-09T14:44:28;4.40;;;1.07;;
20758;SDS011;10539;53.686;9.158;2022-11-09T14:46:59;4.00;;;0.97;;
20758;SDS011;10539;53.686;9.158;2022-11-09T14:49:27;4.97;;;1.30;;
20758;SDS011;10539;53.686;9.158;2022-11-09T14:51:53;6.27;;;1.20;;
20758;SDS011;10539;53.686;9.158;2022-11-09T14:54:23;6.77;;;1.20;;
20758;SDS011;10539;53.686;9.158;2022-11-09T14:56:51;10.87;;;1.10;;
20758;SDS011;10539;53.686;9.158;2022-11-09T14:59:20;7.10;;;1.07;;
20758;SDS011;10539;53.686;9.158;2022-11-09T15:01:55;4.90;;;1.13;;
20758;SDS011;10539;53.686;9.158;2022-11-09T15:04:26;8.77;;;0.97;;
20758;SDS011;10539;53.686;9.158;2022-11-09T15:06:54;3.97;;;0.73;;
20758;SDS011;10539;53.686;9.158;2022-11-09T15:09:29;8.07;;;1.07;;
20758;SDS011;10539;53.686;9.158;2022-11-09T15:11:59;5.70;;;1.10;;
20758;SDS011;10539;53.686;9.158;2022-11-09T15:14:31;5.97;;;1.17;;
20758;SDS011;10539;53.686;9.158;2022-11-09T15:19:58;4.43;;;0.90;;
20758;SDS011;10539;53.686;9.158;2022-11-09T15:25:30;2.53;;;1.03;;
20758;SDS011;10539;53.686;9.158;2022-11-09T15:28:18;5.67;;;1.10;;
20758;SDS011;10539;53.686;9.158;2022-11-09T15:36:29;6.93;;;1.13;;
20758;SDS011;10539;53.686;9.158;2022-11-09T15:39:16;7.57;;;1.73;;
20758;SDS011;10539;53.686;9.158;2022-11-09T15:41:44;8.10;;;1.07;;
20758;SDS011;10539;53.686;9.158;2022-11-09T15:44:09;4.40;;;0.97;;
20758;SDS011;10539;53.686;9.158;2022-11-09T15:46:43;6.10;;;1.57;;
20758;SDS011;10539;53.686;9.158;2022-11-09T15:49:21;4.50;;;0.93;;
20758;SDS011;10539;53.686;9.158;2022-11-09T15:51:49;5.67;;;1.20;;
20758;SDS011;10539;53.686;9.158;2022-11-09T15:54:15;3.47;;;1.00;;
20758;SDS011;10539;53.686;9.158;2022-11-09T15:56:41;8.73;;;1.80;;
20758;SDS011;10539;53.686;9.158;2022-11-09T15:59:18;7.77;;;1.10;;
20758;SDS011;10539;53.686;9.158;2022-11-09T16:01:48;7.87;;;1.57;;
20758;SDS011;10539;53.686;9.158;2022-11-09T16:04:14;6.73;;;1.50;;
20758;SDS011;10539;53.686;9.158;2022-11-09T16:06:40;4.83;;;1.30;;
20758;SDS011;10539;53.686;9.158;2022-11-09T16:09:05;5.53;;;1.10;;
20758;SDS011;10539;53.686;9.158;2022-11-09T16:11:31;7.73;;;1.13;;
20758;SDS011;10539;53.686;9.158;2022-11-09T16:14:00;5.63;;;1.20;;
20758;SDS011;10539;53.686;9.158;2022-11-09T16:16:26;8.30;;;2.37;;
20758;SDS011;10539;53.686;9.158;2022-11-09T16:18:53;3.37;;;0.73;;
20758;SDS011;10539;53.686;9.158;2022-11-09T16:21:20;5.90;;;1.00;;
20758;SDS011;10539;53.686;9.158;2022-11-09T16:23:47;3.13;;;1.00;;
20758;SDS011;10539;53.686;9.158;2022-11-09T16:26:13;7.50;;;1.00;;
20758;SDS011;10539;53.686;9.158;2022-11-09T16:28:41;4.87;;;0.97;;
20758;SDS011;10539;53.686;9.158;2022-11-09T16:31:08;5.03;;;1.00;;
20758;SDS011;10539;53.686;9.158;2022-11-09T16:33:34;5.47;;;1.00;;
20758;SDS011;10539;53.686;9.158;2022-11-09T16:36:01;4.40;;;1.03;;
20758;SDS011;10539;53.686;9.158;2022-11-09T16:38:30;8.83;;;1.00;;
20758;SDS011;10539;53.686;9.158;2022-11-09T16:41:06;3.97;;;1.10;;
20758;SDS011;10539;53.686;9.158;2022-11-09T16:43:33;7.30;;;1.23;;
20758;SDS011;10539;53.686;9.158;2022-11-09T16:46:01;4.43;;;0.90;;
20758;SDS011;10539;53.686;9.158;2022-11-09T16:48:28;5.10;;;0.90;;
20758;SDS011;10539;53.686;9.158;2022-11-09T16:50:57;7.43;;;1.20;;
20758;SDS011;10539;53.686;9.158;2022-11-09T16:53:23;6.43;;;1.40;;
20758;SDS011;10539;53.686;9.158;2022-11-09T16:55:48;3.80;;;1.10;;
20758;SDS011;10539;53.686;9.158;2022-11-09T16:58:14;5.17;;;1.30;;
20758;SDS011;10539;53.686;9.158;2022-11-09T17:00:43;7.67;;;1.10;;